Aérodrome :
LOGIN :

S'inscrire | Disclaimer

   EN    FR    IT 

 










Légende :    VFR   VFR Marginal   IFR   IFR Intensif   IFR Très Intensif
Visi : 
Plafond : 
>= 8 km
>= 3000ft
5 à 8 km
1000 à 3000 ft
1500m à 5 km
500 à 1000 ft
800 à 1500m
200 à 500 ft
< 800m
< 200 ft
Symboles :   Orages  Brouillard  Fortes neiges  Fortes précipitations  Vent > 20 kt
SIGMETs :   Divers  Orages  Givrage  Turbulence  Onde Orograph.  Cendres Volcan.







- Altitude de l'aérodrome : 1475 ft


LSZC - Buochs Stans

DERNIER METAR :
  • 171650Z AUTO VRB02KT 9999 BKN050 SCT070 27/19 Q1019

METARs EXPIRÉS :
  • 171620Z AUTO 13003KT 9999 SCT050 28/18 Q1019
  • 171550Z AUTO 07005KT 040V130 9999 SCT070 27/17 Q1019
  • 171520Z AUTO 09006KT 020V140 9999 NCD 27/17 Q1019
  • 171450Z 15005KT 100V210 9999 FEW040 27/17 Q1019
  • 171420Z AUTO 09005KT 050V160 CAVOK 27/18 Q1019

TAF TAF LSZC
Valide du 17 à 15h jusqu'au 18 à 00h UTC


171425Z 1715/1724 09004KT CAVOK
TEMPO 1715/1719 9999 FEW040
PROB30
TEMPO 1715/1717 FEW040TCU
Pas de NOTAMs connus pour ce terrain.



MET'MAP, la Météo Aéronautique d'un coup d'oeil ! - Copyright ORBIFLY Décembre 2007 - Disclaimer

ORBIFLY MET'MAP TEAM :

Programmation & Développement : Alexandra Zaïnal
Conception & Développement : Baudouin d'Aumeries
Co-Programmation & Développement : Marc-Olivier Méhu
Soutien technique & logistique : Manuel Goepfert

Contact : metmap@orbifly.com




SOURCES & CREDITS :

   NOAA